createdAt,value
2022-11-25T00:02:00.445Z,6.53
2022-11-25T00:05:06.490Z,5.75
2022-11-25T00:08:12.480Z,5.97
2022-11-25T00:11:22.253Z,5.80
2022-11-25T00:14:25.257Z,5.97
2022-11-25T00:17:27.994Z,5.80
2022-11-25T00:20:31.318Z,5.20
2022-11-25T00:23:34.411Z,6.35
2022-11-25T00:26:37.271Z,5.63
2022-11-25T00:29:40.027Z,6.20
2022-11-25T00:32:42.804Z,6.13
2022-11-25T00:35:45.445Z,5.93
2022-11-25T00:38:52.496Z,5.95
2022-11-25T00:42:14.012Z,5.43
2022-11-25T00:45:16.778Z,6.03
2022-11-25T00:48:21.071Z,5.75
2022-11-25T00:51:23.794Z,5.68
2022-11-25T00:54:32.334Z,5.50
2022-11-25T00:57:35.040Z,6.47
2022-11-25T01:00:38.138Z,6.07
2022-11-25T01:03:41.772Z,5.68
2022-11-25T01:06:48.072Z,5.30
2022-11-25T01:09:51.286Z,5.07
2022-11-25T01:12:54.205Z,5.77
2022-11-25T01:15:56.916Z,5.43
2022-11-25T01:19:00.572Z,5.53
2022-11-25T01:22:03.213Z,5.65
2022-11-25T01:25:06.049Z,5.40
2022-11-25T01:28:08.933Z,5.30
2022-11-25T01:31:15.461Z,5.60
2022-11-25T01:34:20.609Z,5.45
2022-11-25T01:37:23.301Z,5.90
2022-11-25T01:40:26.059Z,5.88
2022-11-25T01:43:29.221Z,5.67
2022-11-25T01:46:42.700Z,4.87
2022-11-25T01:50:07.320Z,5.20
2022-11-25T01:53:12.270Z,5.47
2022-11-25T01:56:16.713Z,5.65
2022-11-25T01:59:21.130Z,5.40
2022-11-25T02:02:24.321Z,5.37
2022-11-25T02:05:46.381Z,5.18
2022-11-25T02:08:52.702Z,5.53
2022-11-25T02:11:55.810Z,5.38
2022-11-25T02:14:59.805Z,5.20
2022-11-25T02:18:03.425Z,5.30
2022-11-25T02:21:09.477Z,4.82
2022-11-25T02:24:22.285Z,5.25
2022-11-25T02:27:25.062Z,4.60
2022-11-25T02:30:30.273Z,5.70
2022-11-25T02:33:33.064Z,5.70
2022-11-25T02:36:35.876Z,4.93
2022-11-25T02:39:38.681Z,6.15
2022-11-25T02:42:41.659Z,5.32
2022-11-25T02:45:59.756Z,5.10
2022-11-25T02:49:10.975Z,4.70
2022-11-25T02:52:16.753Z,5.32
2022-11-25T02:55:19.512Z,5.35
2022-11-25T02:58:22.746Z,4.60
2022-11-25T03:01:26.015Z,5.30
2022-11-25T03:04:31.841Z,5.47
2022-11-25T03:07:34.669Z,4.93
2022-11-25T03:10:39.044Z,5.10
2022-11-25T03:13:49.456Z,5.00
2022-11-25T03:16:52.664Z,5.13
2022-11-25T03:19:55.563Z,5.20
2022-11-25T03:22:58.447Z,4.38
2022-11-25T03:26:05.598Z,5.63
2022-11-25T03:29:08.523Z,4.78
2022-11-25T03:32:11.289Z,4.77
2022-11-25T03:35:15.798Z,4.93
2022-11-25T03:38:20.277Z,4.93
2022-11-25T03:41:23.108Z,5.07
2022-11-25T03:44:26.894Z,5.03
2022-11-25T03:47:29.572Z,5.40
2022-11-25T03:50:32.761Z,4.80
2022-11-25T03:53:35.630Z,5.15
2022-11-25T03:56:41.154Z,4.68
2022-11-25T03:59:43.916Z,5.00
2022-11-25T04:02:46.783Z,4.33
2022-11-25T04:05:51.750Z,4.93
2022-11-25T04:08:54.624Z,4.90
2022-11-25T04:12:16.601Z,5.05
2022-11-25T04:15:33.666Z,5.20
2022-11-25T04:18:38.177Z,5.10
2022-11-25T04:21:49.323Z,5.20
2022-11-25T04:24:55.924Z,5.32
2022-11-25T04:28:08.881Z,4.95
2022-11-25T04:31:15.829Z,5.00
2022-11-25T04:34:20.168Z,4.23
2022-11-25T04:37:25.271Z,4.63
2022-11-25T04:40:29.165Z,5.20
2022-11-25T04:43:46.777Z,4.03
2022-11-25T04:46:51.798Z,5.13
2022-11-25T04:49:56.498Z,4.37
2022-11-25T04:52:59.467Z,5.13
2022-11-25T04:56:03.109Z,4.60
2022-11-25T04:59:30.301Z,3.92
2022-11-25T05:02:33.208Z,4.60
2022-11-25T05:05:43.008Z,4.33
2022-11-25T05:08:49.337Z,4.03
2022-11-25T05:11:52.468Z,5.15
2022-11-25T05:14:55.900Z,4.55
2022-11-25T05:17:59.234Z,4.50
2022-11-25T05:21:15.777Z,4.50
2022-11-25T05:24:19.970Z,5.07
2022-11-25T05:27:27.000Z,5.00
2022-11-25T05:30:30.886Z,4.63
2022-11-25T05:33:33.846Z,4.65
2022-11-25T05:36:37.227Z,4.90
2022-11-25T05:39:40.324Z,4.67
2022-11-25T05:43:00.981Z,4.63
2022-11-25T05:46:06.888Z,4.20
2022-11-25T05:49:11.654Z,4.45
2022-11-25T05:52:14.390Z,4.73
2022-11-25T05:55:25.631Z,5.00
2022-11-25T05:58:33.662Z,5.05
2022-11-25T06:01:38.277Z,4.45
2022-11-25T06:04:41.109Z,4.60
2022-11-25T06:07:44.737Z,4.00
2022-11-25T06:10:47.937Z,4.40
2022-11-25T06:13:50.663Z,4.47
2022-11-25T06:16:53.829Z,4.32
2022-11-25T06:20:13.797Z,4.38
2022-11-25T06:23:16.505Z,4.90
2022-11-25T06:26:22.035Z,4.40
2022-11-25T06:29:26.103Z,4.18
2022-11-25T06:32:28.913Z,4.60
2022-11-25T06:35:40.458Z,4.50
2022-11-25T06:38:44.960Z,4.03
2022-11-25T06:41:47.914Z,5.10
2022-11-25T06:44:50.619Z,4.57
2022-11-25T06:47:53.863Z,4.30
2022-11-25T06:50:58.861Z,4.72
2022-11-25T06:54:03.653Z,4.20
2022-11-25T06:57:06.371Z,3.83
2022-11-25T07:00:09.732Z,4.60
2022-11-25T07:03:16.976Z,4.63
2022-11-25T07:06:27.177Z,5.35
2022-11-25T07:09:30.423Z,5.23
2022-11-25T07:12:36.278Z,5.23
2022-11-25T07:15:41.815Z,5.25
2022-11-25T07:18:48.026Z,5.25
2022-11-25T07:21:51.002Z,5.25
2022-11-25T07:24:53.670Z,4.97
2022-11-25T07:27:58.212Z,5.53
2022-11-25T07:31:32.600Z,5.05
2022-11-25T07:34:36.618Z,4.82
2022-11-25T07:37:39.738Z,4.97
2022-11-25T07:40:43.079Z,5.03
2022-11-25T07:43:51.746Z,4.70
2022-11-25T07:46:57.524Z,5.40
2022-11-25T07:50:00.728Z,5.80
2022-11-25T07:53:03.390Z,6.30
2022-11-25T07:56:06.365Z,5.93
2022-11-25T07:59:14.285Z,6.60
2022-11-25T08:02:17.027Z,6.75
2022-11-25T08:05:21.068Z,6.22
2022-11-25T08:08:23.974Z,6.60
2022-11-25T08:11:29.443Z,5.53
2022-11-25T08:14:32.985Z,7.10
2022-11-25T08:17:35.933Z,6.32
2022-11-25T08:20:40.620Z,5.50
2022-11-25T08:23:48.088Z,5.95
2022-11-25T08:26:51.531Z,6.20
2022-11-25T08:29:56.024Z,5.77
2022-11-25T08:33:01.816Z,5.50
2022-11-25T08:36:06.662Z,5.28
2022-11-25T08:39:36.284Z,5.47
2022-11-25T08:42:32.863Z,5.83
2022-11-25T08:45:35.878Z,6.07
2022-11-25T08:48:49.154Z,6.35
2022-11-25T08:51:52.026Z,5.60
2022-11-25T08:54:55.047Z,6.05
2022-11-25T08:58:00.425Z,5.80
2022-11-25T09:01:05.658Z,6.33
2022-11-25T09:04:09.165Z,6.47
2022-11-25T09:07:16.583Z,8.65
2022-11-25T09:10:21.771Z,8.73
2022-11-25T09:13:29.969Z,9.70
2022-11-25T09:16:37.616Z,10.77
2022-11-25T09:20:01.042Z,10.15
2022-11-25T09:23:04.894Z,9.63
2022-11-25T09:26:14.776Z,9.88
2022-11-25T09:29:17.929Z,10.83
2022-11-25T09:32:23.192Z,11.27
2022-11-25T09:35:26.737Z,10.40
2022-11-25T09:38:29.445Z,9.63
2022-11-25T09:42:29.090Z,9.57
2022-11-25T09:46:35.838Z,9.57
2022-11-25T09:50:00.606Z,9.83
2022-11-25T09:53:12.811Z,8.77
2022-11-25T09:56:41.863Z,10.45
2022-11-25T10:00:10.965Z,10.10
2022-11-25T10:04:00.075Z,8.97
2022-11-25T10:07:05.457Z,9.23
2022-11-25T10:10:20.009Z,8.77
2022-11-25T10:13:32.737Z,8.10
2022-11-25T10:16:50.100Z,7.55
2022-11-25T10:20:05.749Z,7.13
2022-11-25T10:23:28.388Z,7.10
2022-11-25T10:26:40.574Z,7.28
2022-11-25T10:29:46.604Z,5.80
2022-11-25T10:33:03.642Z,6.60
2022-11-25T10:36:24.939Z,6.07
2022-11-25T10:39:31.888Z,6.33
2022-11-25T10:42:37.102Z,5.70
2022-11-25T10:45:49.144Z,6.55
2022-11-25T10:49:33.355Z,5.80
2022-11-25T10:52:42.935Z,5.60
2022-11-25T10:56:10.302Z,5.80
2022-11-25T10:59:21.511Z,5.97
2022-11-25T11:02:40.130Z,5.65
2022-11-25T11:05:49.176Z,4.50
2022-11-25T11:08:51.968Z,5.13
2022-11-25T11:11:54.895Z,5.33
2022-11-25T11:15:45.468Z,4.88
2022-11-25T11:18:55.408Z,5.00
2022-11-25T11:22:29.319Z,4.95
2022-11-25T11:25:34.869Z,4.70
2022-11-25T11:28:48.575Z,4.70
2022-11-25T11:32:03.283Z,4.55
2022-11-25T11:35:14.940Z,5.68
2022-11-25T11:38:24.203Z,5.05
2022-11-25T11:41:29.394Z,4.60
2022-11-25T11:44:32.477Z,4.77
2022-11-25T11:47:53.251Z,4.93
2022-11-25T11:51:26.619Z,5.43
2022-11-25T11:54:36.671Z,4.68
2022-11-25T11:58:04.121Z,4.70
2022-11-25T12:01:21.183Z,4.43
2022-11-25T12:04:44.175Z,4.45
2022-11-25T12:07:54.418Z,4.05
2022-11-25T12:11:03.219Z,4.45
2022-11-25T12:14:08.872Z,3.83
2022-11-25T12:17:23.346Z,4.70
2022-11-25T12:20:46.530Z,4.30
2022-11-25T12:24:08.885Z,4.15
2022-11-25T12:27:20.227Z,3.75
2022-11-25T12:30:25.356Z,3.67
2022-11-25T12:33:42.897Z,3.67
2022-11-25T12:36:47.555Z,3.00
2022-11-25T12:40:04.982Z,3.20
2022-11-25T12:43:25.854Z,3.25
2022-11-25T12:46:40.535Z,2.83
2022-11-25T12:49:46.477Z,2.97
2022-11-25T12:52:59.854Z,2.85
2022-11-25T12:56:06.117Z,3.40
2022-11-25T13:00:39.317Z,3.45
2022-11-25T13:03:50.182Z,3.43
2022-11-25T13:07:18.160Z,3.20
2022-11-25T13:11:00.176Z,3.03
2022-11-25T13:14:26.014Z,3.30
2022-11-25T13:17:30.454Z,3.40
2022-11-25T13:20:37.014Z,2.70
2022-11-25T13:23:49.292Z,3.20
2022-11-25T13:26:52.922Z,3.08
2022-11-25T13:29:55.735Z,2.58
2022-11-25T13:33:11.765Z,3.20
2022-11-25T13:36:24.976Z,2.90
2022-11-25T13:39:35.412Z,2.97
2022-11-25T13:42:50.776Z,2.80
2022-11-25T13:45:54.595Z,2.75
2022-11-25T13:48:57.558Z,2.70
2022-11-25T13:52:24.886Z,2.67
2022-11-25T13:55:41.716Z,2.63
2022-11-25T13:59:10.735Z,3.00
2022-11-25T14:02:29.348Z,2.67
2022-11-25T14:05:46.879Z,2.30
2022-11-25T14:09:10.020Z,2.90
2022-11-25T14:12:21.546Z,2.93
2022-11-25T14:15:52.075Z,2.60
2022-11-25T14:23:37.740Z,3.08
2022-11-25T14:26:49.807Z,3.10
2022-11-25T14:29:57.970Z,3.37
2022-11-25T14:33:05.203Z,3.22
2022-11-25T14:36:19.785Z,3.55
2022-11-25T14:39:30.291Z,4.88
2022-11-25T14:42:36.435Z,3.10
2022-11-25T14:45:39.385Z,3.37
2022-11-25T14:48:43.338Z,3.42
2022-11-25T14:51:50.899Z,3.55
2022-11-25T14:54:56.767Z,3.55
2022-11-25T14:57:59.706Z,3.90
2022-11-25T15:01:06.557Z,3.80
2022-11-25T15:04:09.957Z,3.05
2022-11-25T15:07:19.004Z,3.50
2022-11-25T15:10:36.414Z,3.25
2022-11-25T15:13:43.102Z,4.23
2022-11-25T15:16:46.106Z,3.70
2022-11-25T15:19:49.027Z,3.72
2022-11-25T15:22:54.002Z,4.22
2022-11-25T15:25:57.920Z,4.65
2022-11-25T15:29:04.990Z,3.90
2022-11-25T15:32:15.284Z,3.97
2022-11-25T15:35:21.534Z,5.30
2022-11-25T15:38:42.304Z,4.97
2022-11-25T15:41:49.462Z,5.53
2022-11-25T15:45:08.365Z,5.90
2022-11-25T15:48:31.065Z,6.03
2022-11-25T15:52:14.472Z,6.05
2022-11-25T15:55:37.753Z,6.13
2022-11-25T15:58:47.191Z,6.63
2022-11-25T16:01:54.453Z,6.80
2022-11-25T16:05:17.831Z,5.63
2022-11-25T16:08:31.358Z,6.78
2022-11-25T16:11:45.387Z,6.70
2022-11-25T16:14:48.167Z,6.30
2022-11-25T16:17:54.805Z,6.30
2022-11-25T16:21:09.982Z,6.60
2022-11-25T16:24:21.531Z,9.27
2022-11-25T16:27:27.238Z,7.30
2022-11-25T16:30:30.572Z,7.90
2022-11-25T16:33:33.221Z,7.50
2022-11-25T16:36:35.938Z,8.20
2022-11-25T16:39:39.566Z,7.72
2022-11-25T16:42:50.766Z,7.20
2022-11-25T16:45:55.267Z,8.02
2022-11-25T16:48:58.218Z,8.43
2022-11-25T16:52:01.388Z,7.17
2022-11-25T16:55:04.869Z,8.05
2022-11-25T16:58:17.048Z,7.25
2022-11-25T17:01:23.083Z,7.93
2022-11-25T17:04:31.443Z,8.53
2022-11-25T17:07:34.382Z,8.47
2022-11-25T17:10:37.636Z,7.78
2022-11-25T17:13:44.257Z,8.02
2022-11-25T17:16:47.081Z,9.38
2022-11-25T17:19:50.406Z,8.37
2022-11-25T17:22:54.373Z,8.57
2022-11-25T17:25:57.130Z,8.75
2022-11-25T17:29:02.064Z,8.38
2022-11-25T17:32:05.506Z,9.35
2022-11-25T17:35:20.949Z,8.90
2022-11-25T17:38:23.964Z,8.53
2022-11-25T17:41:29.554Z,9.57
2022-11-25T17:44:32.689Z,9.52
2022-11-25T17:47:35.501Z,10.10
2022-11-25T17:50:38.721Z,9.00
2022-11-25T17:53:41.834Z,8.87
2022-11-25T17:56:51.784Z,9.43
2022-11-25T17:59:55.885Z,8.80
2022-11-25T18:02:58.676Z,9.38
2022-11-25T18:06:03.295Z,9.10
2022-11-25T18:09:05.961Z,10.77
2022-11-25T18:12:14.845Z,9.38
2022-11-25T18:15:20.774Z,10.60
2022-11-25T18:18:25.616Z,9.68
2022-11-25T18:21:29.565Z,10.23
2022-11-25T18:24:32.665Z,9.57
2022-11-25T18:27:35.447Z,9.73
2022-11-25T18:30:39.087Z,9.48
2022-11-25T18:33:42.494Z,9.80
2022-11-25T18:36:46.183Z,9.07
2022-11-25T18:39:49.191Z,9.43
2022-11-25T18:42:55.503Z,9.60
2022-11-25T18:45:58.506Z,9.18
2022-11-25T18:49:02.214Z,8.90
2022-11-25T18:52:05.396Z,9.67
2022-11-25T18:55:09.719Z,9.43
2022-11-25T18:58:17.261Z,8.95
2022-11-25T19:01:23.752Z,9.20
2022-11-25T19:04:27.726Z,8.75
2022-11-25T19:07:30.826Z,9.00
2022-11-25T19:10:36.985Z,9.20
2022-11-25T19:13:39.937Z,9.70
2022-11-25T19:16:43.976Z,8.90
2022-11-25T19:19:47.911Z,9.10
2022-11-25T19:22:50.738Z,9.30
2022-11-25T19:25:55.531Z,9.53
2022-11-25T19:29:12.766Z,9.98
2022-11-25T19:32:28.684Z,10.05
2022-11-25T19:35:37.638Z,10.40
2022-11-25T19:38:40.697Z,9.33
2022-11-25T19:41:44.144Z,10.10
2022-11-25T19:44:47.986Z,10.15
2022-11-25T19:47:52.941Z,10.20
2022-11-25T19:51:00.184Z,9.57
2022-11-25T19:54:02.954Z,9.40
2022-11-25T19:57:18.042Z,9.10
2022-11-25T20:00:23.314Z,9.90
2022-11-25T20:03:30.145Z,8.98
2022-11-25T20:06:33.450Z,8.82
2022-11-25T20:09:36.326Z,8.90
2022-11-25T20:12:39.406Z,9.77
2022-11-25T20:15:44.245Z,8.68
2022-11-25T20:18:49.547Z,8.90
2022-11-25T20:21:52.789Z,9.32
2022-11-25T20:24:56.444Z,8.83
2022-11-25T20:27:59.653Z,8.97
2022-11-25T20:31:02.875Z,9.20
2022-11-25T20:34:06.996Z,9.10
2022-11-25T20:37:14.284Z,9.43
2022-11-25T20:40:23.649Z,9.73
2022-11-25T20:43:40.832Z,10.00
2022-11-25T20:46:43.919Z,10.05
2022-11-25T20:49:48.012Z,8.60
2022-11-25T20:52:51.463Z,9.63
2022-11-25T20:55:54.412Z,10.50
2022-11-25T20:58:57.708Z,9.57
2022-11-25T21:02:00.788Z,10.10
2022-11-25T21:05:04.257Z,9.77
2022-11-25T21:08:15.071Z,8.98
2022-11-25T21:11:19.193Z,10.33
2022-11-25T21:14:22.793Z,9.60
2022-11-25T21:17:25.525Z,9.45
2022-11-25T21:20:29.516Z,9.40
2022-11-25T21:23:36.263Z,9.65
2022-11-25T21:26:38.969Z,9.17
2022-11-25T21:29:43.796Z,10.33
2022-11-25T21:32:47.123Z,9.40
2022-11-25T21:35:51.386Z,9.32
2022-11-25T21:39:02.998Z,8.93
2022-11-25T21:42:15.451Z,8.87
2022-11-25T21:45:18.610Z,10.13
2022-11-25T21:48:26.212Z,9.90
2022-11-25T21:51:28.851Z,9.25
2022-11-25T21:54:31.482Z,9.10
2022-11-25T21:57:34.180Z,9.07
2022-11-25T22:00:36.886Z,9.10
2022-11-25T22:03:39.490Z,9.85
2022-11-25T22:06:42.520Z,8.95
2022-11-25T22:09:45.173Z,9.57
2022-11-25T22:12:47.899Z,9.83
2022-11-25T22:15:55.892Z,9.50
2022-11-25T22:18:59.639Z,9.23
2022-11-25T22:22:02.633Z,9.02
2022-11-25T22:25:05.580Z,9.13
2022-11-25T22:28:08.387Z,9.40
2022-11-25T22:31:12.795Z,9.73
2022-11-25T22:34:19.085Z,9.82
2022-11-25T22:37:24.081Z,8.60
2022-11-25T22:40:26.805Z,8.18
2022-11-25T22:43:36.635Z,8.57
2022-11-25T22:46:39.282Z,9.13
2022-11-25T22:49:47.788Z,8.23
2022-11-25T22:52:52.209Z,8.98
2022-11-25T22:55:58.234Z,8.25
2022-11-25T22:59:01.265Z,8.83
2022-11-25T23:02:04.984Z,8.10
2022-11-25T23:05:28.957Z,8.45
2022-11-25T23:08:34.966Z,8.43
2022-11-25T23:11:40.112Z,8.60
2022-11-25T23:14:43.640Z,8.67
2022-11-25T23:17:55.903Z,7.60
2022-11-25T23:20:58.590Z,8.02
2022-11-25T23:24:01.315Z,8.70
2022-11-25T23:30:24.524Z,9.00
2022-11-25T23:33:38.075Z,8.57
2022-11-25T23:36:44.843Z,8.77
2022-11-25T23:39:51.698Z,8.57
2022-11-25T23:42:55.710Z,9.13
2022-11-25T23:45:58.427Z,8.30
2022-11-25T23:49:03.128Z,7.67
2022-11-25T23:52:08.284Z,8.45
2022-11-25T23:55:18.057Z,9.00
2022-11-25T23:58:23.443Z,9.00
